sensor_id;sensor_type;location;lat;lon;timestamp;P1;durP1;ratioP1;P2;durP2;ratioP2
28481;SDS011;15703;49.588;6.260;2023-07-20T00:00:40;4.90;;;2.50;;
28481;SDS011;15703;49.588;6.260;2023-07-20T00:03:09;3.43;;;2.87;;
28481;SDS011;15703;49.588;6.260;2023-07-20T00:05:32;2.33;;;2.13;;
28481;SDS011;15703;49.588;6.260;2023-07-20T00:07:54;5.83;;;2.70;;
28481;SDS011;15703;49.588;6.260;2023-07-20T00:10:18;6.00;;;2.73;;
28481;SDS011;15703;49.588;6.260;2023-07-20T00:12:40;4.50;;;2.53;;
28481;SDS011;15703;49.588;6.260;2023-07-20T00:15:02;3.67;;;2.77;;
28481;SDS011;15703;49.588;6.260;2023-07-20T00:17:25;4.63;;;2.90;;
28481;SDS011;15703;49.588;6.260;2023-07-20T00:19:47;3.50;;;2.90;;
28481;SDS011;15703;49.588;6.260;2023-07-20T00:22:10;5.53;;;2.87;;
28481;SDS011;15703;49.588;6.260;2023-07-20T00:24:34;4.43;;;2.83;;
28481;SDS011;15703;49.588;6.260;2023-07-20T00:26:56;3.33;;;2.97;;
28481;SDS011;15703;49.588;6.260;2023-07-20T00:29:19;5.03;;;3.07;;
28481;SDS011;15703;49.588;6.260;2023-07-20T00:31:41;4.17;;;2.60;;
28481;SDS011;15703;49.588;6.260;2023-07-20T00:34:05;4.50;;;2.53;;
28481;SDS011;15703;49.588;6.260;2023-07-20T00:36:28;3.20;;;2.70;;
28481;SDS011;15703;49.588;6.260;2023-07-20T00:38:50;3.43;;;3.00;;
28481;SDS011;15703;49.588;6.260;2023-07-20T00:41:12;4.47;;;2.63;;
28481;SDS011;15703;49.588;6.260;2023-07-20T00:43:36;3.50;;;2.87;;
28481;SDS011;15703;49.588;6.260;2023-07-20T00:45:58;3.27;;;2.60;;
28481;SDS011;15703;49.588;6.260;2023-07-20T00:48:21;4.17;;;2.53;;
28481;SDS011;15703;49.588;6.260;2023-07-20T00:50:43;3.17;;;2.83;;
28481;SDS011;15703;49.588;6.260;2023-07-20T00:53:06;6.20;;;3.30;;
28481;SDS011;15703;49.588;6.260;2023-07-20T00:55:29;3.30;;;3.00;;
28481;SDS011;15703;49.588;6.260;2023-07-20T00:57:51;4.20;;;3.07;;
28481;SDS011;15703;49.588;6.260;2023-07-20T01:00:13;6.67;;;2.90;;
28481;SDS011;15703;49.588;6.260;2023-07-20T01:02:37;4.70;;;2.80;;
28481;SDS011;15703;49.588;6.260;2023-07-20T01:05:00;3.90;;;2.90;;
28481;SDS011;15703;49.588;6.260;2023-07-20T01:07:24;4.50;;;3.10;;
28481;SDS011;15703;49.588;6.260;2023-07-20T01:12:22;3.57;;;2.90;;
28481;SDS011;15703;49.588;6.260;2023-07-20T01:14:48;2.77;;;2.53;;
28481;SDS011;15703;49.588;6.260;2023-07-20T01:17:11;6.27;;;3.43;;
28481;SDS011;15703;49.588;6.260;2023-07-20T01:19:33;7.23;;;3.37;;
28481;SDS011;15703;49.588;6.260;2023-07-20T01:22:58;4.13;;;2.80;;
28481;SDS011;15703;49.588;6.260;2023-07-20T01:25:03;4.53;;;3.33;;
28481;SDS011;15703;49.588;6.260;2023-07-20T01:30:01;6.00;;;3.10;;
28481;SDS011;15703;49.588;6.260;2023-07-20T01:32:25;4.07;;;2.97;;
28481;SDS011;15703;49.588;6.260;2023-07-20T01:34:48;4.20;;;3.10;;
28481;SDS011;15703;49.588;6.260;2023-07-20T01:37:13;3.97;;;2.90;;
28481;SDS011;15703;49.588;6.260;2023-07-20T01:39:35;4.93;;;3.20;;
28481;SDS011;15703;49.588;6.260;2023-07-20T01:41:59;3.50;;;3.13;;
28481;SDS011;15703;49.588;6.260;2023-07-20T01:44:22;6.50;;;3.10;;
28481;SDS011;15703;49.588;6.260;2023-07-20T01:46:44;3.80;;;2.80;;
28481;SDS011;15703;49.588;6.260;2023-07-20T01:49:06;4.67;;;3.20;;
28481;SDS011;15703;49.588;6.260;2023-07-20T01:51:29;3.63;;;3.00;;
28481;SDS011;15703;49.588;6.260;2023-07-20T01:53:51;5.23;;;3.10;;
28481;SDS011;15703;49.588;6.260;2023-07-20T01:56:13;3.50;;;3.17;;
28481;SDS011;15703;49.588;6.260;2023-07-20T01:58:35;4.63;;;3.40;;
28481;SDS011;15703;49.588;6.260;2023-07-20T02:00:58;4.97;;;2.93;;
28481;SDS011;15703;49.588;6.260;2023-07-20T02:03:20;6.00;;;3.57;;
28481;SDS011;15703;49.588;6.260;2023-07-20T02:05:43;4.87;;;2.87;;
28481;SDS011;15703;49.588;6.260;2023-07-20T02:08:05;4.03;;;3.13;;
28481;SDS011;15703;49.588;6.260;2023-07-20T02:10:27;3.70;;;3.40;;
28481;SDS011;15703;49.588;6.260;2023-07-20T02:12:50;4.90;;;3.53;;
28481;SDS011;15703;49.588;6.260;2023-07-20T02:15:13;7.27;;;3.83;;
28481;SDS011;15703;49.588;6.260;2023-07-20T02:17:37;5.90;;;3.43;;
28481;SDS011;15703;49.588;6.260;2023-07-20T02:20:02;4.27;;;3.50;;
28481;SDS011;15703;49.588;6.260;2023-07-20T02:22:24;4.23;;;3.33;;
28481;SDS011;15703;49.588;6.260;2023-07-20T02:24:47;4.40;;;3.50;;
28481;SDS011;15703;49.588;6.260;2023-07-20T02:27:10;7.27;;;3.63;;
28481;SDS011;15703;49.588;6.260;2023-07-20T02:29:32;6.37;;;3.57;;
28481;SDS011;15703;49.588;6.260;2023-07-20T02:31:55;3.33;;;3.03;;
28481;SDS011;15703;49.588;6.260;2023-07-20T02:34:17;3.97;;;3.00;;
28481;SDS011;15703;49.588;6.260;2023-07-20T02:36:40;4.17;;;3.10;;
28481;SDS011;15703;49.588;6.260;2023-07-20T02:39:03;5.73;;;3.60;;
28481;SDS011;15703;49.588;6.260;2023-07-20T02:41:26;7.00;;;3.00;;
28481;SDS011;15703;49.588;6.260;2023-07-20T02:43:48;4.13;;;2.90;;
28481;SDS011;15703;49.588;6.260;2023-07-20T02:46:11;3.70;;;3.33;;
28481;SDS011;15703;49.588;6.260;2023-07-20T02:48:33;3.97;;;3.57;;
28481;SDS011;15703;49.588;6.260;2023-07-20T02:50:56;4.23;;;3.50;;
28481;SDS011;15703;49.588;6.260;2023-07-20T02:53:18;4.67;;;3.47;;
28481;SDS011;15703;49.588;6.260;2023-07-20T02:55:40;4.47;;;3.30;;
28481;SDS011;15703;49.588;6.260;2023-07-20T02:58:03;6.87;;;3.63;;
28481;SDS011;15703;49.588;6.260;2023-07-20T03:00:25;5.17;;;3.50;;
28481;SDS011;15703;49.588;6.260;2023-07-20T03:02:47;4.00;;;3.60;;
28481;SDS011;15703;49.588;6.260;2023-07-20T03:05:10;6.63;;;3.73;;
28481;SDS011;15703;49.588;6.260;2023-07-20T03:07:32;4.63;;;3.47;;
28481;SDS011;15703;49.588;6.260;2023-07-20T03:09:55;4.83;;;3.63;;
28481;SDS011;15703;49.588;6.260;2023-07-20T03:12:17;5.03;;;3.60;;
28481;SDS011;15703;49.588;6.260;2023-07-20T03:14:40;4.03;;;3.20;;
28481;SDS011;15703;49.588;6.260;2023-07-20T03:17:02;3.97;;;3.33;;
28481;SDS011;15703;49.588;6.260;2023-07-20T03:19:26;6.57;;;3.80;;
28481;SDS011;15703;49.588;6.260;2023-07-20T03:21:49;3.50;;;3.20;;
28481;SDS011;15703;49.588;6.260;2023-07-20T03:24:12;3.70;;;3.13;;
28481;SDS011;15703;49.588;6.260;2023-07-20T03:26:35;5.70;;;3.90;;
28481;SDS011;15703;49.588;6.260;2023-07-20T03:28:59;3.70;;;3.23;;
28481;SDS011;15703;49.588;6.260;2023-07-20T03:31:22;4.50;;;3.37;;
28481;SDS011;15703;49.588;6.260;2023-07-20T03:33:44;7.57;;;3.80;;
28481;SDS011;15703;49.588;6.260;2023-07-20T03:36:07;6.00;;;4.03;;
28481;SDS011;15703;49.588;6.260;2023-07-20T03:38:31;5.27;;;3.93;;
28481;SDS011;15703;49.588;6.260;2023-07-20T03:40:54;5.20;;;3.50;;
28481;SDS011;15703;49.588;6.260;2023-07-20T03:43:17;4.23;;;3.40;;
28481;SDS011;15703;49.588;6.260;2023-07-20T03:45:39;4.00;;;3.40;;
28481;SDS011;15703;49.588;6.260;2023-07-20T03:48:01;3.53;;;3.20;;
28481;SDS011;15703;49.588;6.260;2023-07-20T03:50:24;4.73;;;3.53;;
28481;SDS011;15703;49.588;6.260;2023-07-20T03:52:46;5.83;;;3.67;;
28481;SDS011;15703;49.588;6.260;2023-07-20T03:55:09;5.27;;;4.00;;
28481;SDS011;15703;49.588;6.260;2023-07-20T03:57:31;5.20;;;3.80;;
28481;SDS011;15703;49.588;6.260;2023-07-20T03:59:54;4.97;;;4.00;;
28481;SDS011;15703;49.588;6.260;2023-07-20T04:02:17;4.40;;;4.00;;
28481;SDS011;15703;49.588;6.260;2023-07-20T04:04:39;4.27;;;3.83;;
28481;SDS011;15703;49.588;6.260;2023-07-20T04:07:02;5.13;;;4.20;;
28481;SDS011;15703;49.588;6.260;2023-07-20T04:09:25;6.43;;;4.07;;
28481;SDS011;15703;49.588;6.260;2023-07-20T04:11:47;6.80;;;3.90;;
28481;SDS011;15703;49.588;6.260;2023-07-20T04:14:09;5.57;;;3.90;;
28481;SDS011;15703;49.588;6.260;2023-07-20T04:16:32;5.13;;;4.20;;
28481;SDS011;15703;49.588;6.260;2023-07-20T04:18:55;4.93;;;4.20;;
28481;SDS011;15703;49.588;6.260;2023-07-20T04:21:17;4.83;;;4.33;;
28481;SDS011;15703;49.588;6.260;2023-07-20T04:23:40;6.17;;;4.00;;
28481;SDS011;15703;49.588;6.260;2023-07-20T04:26:02;4.43;;;3.50;;
28481;SDS011;15703;49.588;6.260;2023-07-20T04:28:25;5.73;;;3.70;;
28481;SDS011;15703;49.588;6.260;2023-07-20T04:30:48;5.77;;;3.50;;
28481;SDS011;15703;49.588;6.260;2023-07-20T04:33:14;4.50;;;3.93;;
28481;SDS011;15703;49.588;6.260;2023-07-20T04:35:47;3.90;;;3.50;;
28481;SDS011;15703;49.588;6.260;2023-07-20T04:38:13;4.63;;;3.10;;
28481;SDS011;15703;49.588;6.260;2023-07-20T04:40:37;4.37;;;2.57;;
28481;SDS011;15703;49.588;6.260;2023-07-20T04:42:59;4.07;;;2.60;;
28481;SDS011;15703;49.588;6.260;2023-07-20T04:45:21;4.23;;;2.50;;
28481;SDS011;15703;49.588;6.260;2023-07-20T04:47:45;8.10;;;2.60;;
28481;SDS011;15703;49.588;6.260;2023-07-20T04:50:08;2.75;;;2.55;;
28481;SDS011;15703;49.588;6.260;2023-07-20T04:52:30;2.50;;;2.30;;
28481;SDS011;15703;49.588;6.260;2023-07-20T04:55:05;2.10;;;1.92;;
28481;SDS011;15703;49.588;6.260;2023-07-20T04:57:28;4.35;;;1.92;;
28481;SDS011;15703;49.588;6.260;2023-07-20T04:59:50;2.72;;;2.08;;
28481;SDS011;15703;49.588;6.260;2023-07-20T05:02:13;3.08;;;1.80;;
28481;SDS011;15703;49.588;6.260;2023-07-20T05:04:35;3.92;;;1.90;;
28481;SDS011;15703;49.588;6.260;2023-07-20T05:07:00;3.50;;;1.88;;
28481;SDS011;15703;49.588;6.260;2023-07-20T05:09:22;4.38;;;2.00;;
28481;SDS011;15703;49.588;6.260;2023-07-20T05:11:45;3.40;;;2.15;;
28481;SDS011;15703;49.588;6.260;2023-07-20T05:14:09;3.17;;;1.95;;
28481;SDS011;15703;49.588;6.260;2023-07-20T05:16:31;3.13;;;2.05;;
28481;SDS011;15703;49.588;6.260;2023-07-20T05:18:57;2.30;;;1.70;;
28481;SDS011;15703;49.588;6.260;2023-07-20T05:21:19;4.88;;;2.38;;
28481;SDS011;15703;49.588;6.260;2023-07-20T05:23:42;4.50;;;2.17;;
28481;SDS011;15703;49.588;6.260;2023-07-20T05:26:05;4.65;;;2.30;;
28481;SDS011;15703;49.588;6.260;2023-07-20T05:28:28;2.50;;;1.40;;
28481;SDS011;15703;49.588;6.260;2023-07-20T05:30:50;3.78;;;1.95;;
28481;SDS011;15703;49.588;6.260;2023-07-20T05:33:13;3.90;;;1.48;;
28481;SDS011;15703;49.588;6.260;2023-07-20T05:35:36;3.90;;;2.05;;
28481;SDS011;15703;49.588;6.260;2023-07-20T05:37:59;3.70;;;2.17;;
28481;SDS011;15703;49.588;6.260;2023-07-20T05:40:21;4.75;;;2.17;;
28481;SDS011;15703;49.588;6.260;2023-07-20T05:42:43;7.10;;;2.20;;
28481;SDS011;15703;49.588;6.260;2023-07-20T05:45:05;5.03;;;2.30;;
28481;SDS011;15703;49.588;6.260;2023-07-20T05:47:28;6.28;;;2.45;;
28481;SDS011;15703;49.588;6.260;2023-07-20T05:49:50;7.03;;;2.83;;
28481;SDS011;15703;49.588;6.260;2023-07-20T05:52:13;5.45;;;2.65;;
28481;SDS011;15703;49.588;6.260;2023-07-20T05:54:35;5.78;;;2.47;;
28481;SDS011;15703;49.588;6.260;2023-07-20T05:56:57;8.30;;;2.63;;
28481;SDS011;15703;49.588;6.260;2023-07-20T05:59:20;5.43;;;2.58;;
28481;SDS011;15703;49.588;6.260;2023-07-20T06:01:43;5.88;;;2.15;;
28481;SDS011;15703;49.588;6.260;2023-07-20T06:04:05;3.75;;;1.75;;
28481;SDS011;15703;49.588;6.260;2023-07-20T06:06:28;7.93;;;2.67;;
28481;SDS011;15703;49.588;6.260;2023-07-20T06:08:50;5.63;;;2.35;;
28481;SDS011;15703;49.588;6.260;2023-07-20T06:11:12;7.63;;;2.08;;
28481;SDS011;15703;49.588;6.260;2023-07-20T06:13:34;4.65;;;2.00;;
28481;SDS011;15703;49.588;6.260;2023-07-20T06:15:57;4.72;;;2.25;;
28481;SDS011;15703;49.588;6.260;2023-07-20T06:18:19;2.25;;;1.75;;
28481;SDS011;15703;49.588;6.260;2023-07-20T06:20:42;4.88;;;2.20;;
28481;SDS011;15703;49.588;6.260;2023-07-20T06:23:05;4.22;;;1.90;;
28481;SDS011;15703;49.588;6.260;2023-07-20T06:25:27;4.18;;;1.75;;
28481;SDS011;15703;49.588;6.260;2023-07-20T06:27:49;4.57;;;1.95;;
28481;SDS011;15703;49.588;6.260;2023-07-20T06:30:15;3.22;;;1.85;;
28481;SDS011;15703;49.588;6.260;2023-07-20T06:32:40;5.85;;;2.28;;
28481;SDS011;15703;49.588;6.260;2023-07-20T06:35:02;3.05;;;1.80;;
28481;SDS011;15703;49.588;6.260;2023-07-20T06:37:25;3.42;;;1.90;;
28481;SDS011;15703;49.588;6.260;2023-07-20T06:39:47;5.80;;;2.15;;
28481;SDS011;15703;49.588;6.260;2023-07-20T06:42:12;5.18;;;2.42;;
28481;SDS011;15703;49.588;6.260;2023-07-20T06:44:34;4.15;;;2.47;;
28481;SDS011;15703;49.588;6.260;2023-07-20T06:46:57;4.07;;;1.67;;
28481;SDS011;15703;49.588;6.260;2023-07-20T06:49:26;6.13;;;2.20;;
28481;SDS011;15703;49.588;6.260;2023-07-20T06:51:48;4.32;;;2.38;;
28481;SDS011;15703;49.588;6.260;2023-07-20T06:54:11;4.05;;;1.63;;
28481;SDS011;15703;49.588;6.260;2023-07-20T06:56:33;4.90;;;2.20;;
28481;SDS011;15703;49.588;6.260;2023-07-20T06:58:56;3.65;;;2.35;;
28481;SDS011;15703;49.588;6.260;2023-07-20T07:01:18;4.63;;;2.42;;
28481;SDS011;15703;49.588;6.260;2023-07-20T07:03:43;5.47;;;2.47;;
28481;SDS011;15703;49.588;6.260;2023-07-20T07:06:05;5.05;;;2.45;;
28481;SDS011;15703;49.588;6.260;2023-07-20T07:08:28;3.58;;;2.17;;
28481;SDS011;15703;49.588;6.260;2023-07-20T07:10:50;4.80;;;2.40;;
28481;SDS011;15703;49.588;6.260;2023-07-20T07:13:12;3.88;;;2.22;;
28481;SDS011;15703;49.588;6.260;2023-07-20T07:15:35;3.63;;;2.30;;
28481;SDS011;15703;49.588;6.260;2023-07-20T07:17:59;3.60;;;2.13;;
28481;SDS011;15703;49.588;6.260;2023-07-20T07:20:22;3.35;;;2.10;;
28481;SDS011;15703;49.588;6.260;2023-07-20T07:22:45;5.20;;;2.50;;
28481;SDS011;15703;49.588;6.260;2023-07-20T07:25:11;9.63;;;2.42;;
28481;SDS011;15703;49.588;6.260;2023-07-20T07:27:33;4.18;;;1.95;;
28481;SDS011;15703;49.588;6.260;2023-07-20T07:29:56;5.72;;;2.17;;
28481;SDS011;15703;49.588;6.260;2023-07-20T07:32:18;2.08;;;1.83;;
28481;SDS011;15703;49.588;6.260;2023-07-20T07:34:40;5.72;;;2.38;;
28481;SDS011;15703;49.588;6.260;2023-07-20T07:37:03;3.45;;;2.08;;
28481;SDS011;15703;49.588;6.260;2023-07-20T07:39:26;5.28;;;1.98;;
28481;SDS011;15703;49.588;6.260;2023-07-20T07:41:56;3.75;;;1.95;;
28481;SDS011;15703;49.588;6.260;2023-07-20T07:44:18;3.05;;;1.80;;
28481;SDS011;15703;49.588;6.260;2023-07-20T07:46:42;3.55;;;2.40;;
28481;SDS011;15703;49.588;6.260;2023-07-20T07:49:06;5.07;;;2.28;;
28481;SDS011;15703;49.588;6.260;2023-07-20T07:51:28;2.92;;;2.40;;
28481;SDS011;15703;49.588;6.260;2023-07-20T07:53:50;4.45;;;2.38;;
28481;SDS011;15703;49.588;6.260;2023-07-20T07:56:16;7.28;;;2.90;;
28481;SDS011;15703;49.588;6.260;2023-07-20T07:58:38;5.28;;;2.58;;
28481;SDS011;15703;49.588;6.260;2023-07-20T08:01:02;3.90;;;2.13;;
28481;SDS011;15703;49.588;6.260;2023-07-20T08:03:24;4.15;;;2.22;;
28481;SDS011;15703;49.588;6.260;2023-07-20T08:05:47;3.30;;;2.25;;
28481;SDS011;15703;49.588;6.260;2023-07-20T08:08:09;6.50;;;2.33;;
28481;SDS011;15703;49.588;6.260;2023-07-20T08:10:32;4.15;;;2.40;;
28481;SDS011;15703;49.588;6.260;2023-07-20T08:12:54;5.30;;;2.65;;
28481;SDS011;15703;49.588;6.260;2023-07-20T08:15:16;4.38;;;2.92;;
28481;SDS011;15703;49.588;6.260;2023-07-20T08:17:43;10.30;;;3.47;;
28481;SDS011;15703;49.588;6.260;2023-07-20T08:20:06;4.03;;;2.65;;
28481;SDS011;15703;49.588;6.260;2023-07-20T08:22:31;5.45;;;2.85;;
28481;SDS011;15703;49.588;6.260;2023-07-20T08:24:53;5.10;;;3.08;;
28481;SDS011;15703;49.588;6.260;2023-07-20T08:27:17;4.32;;;2.50;;
28481;SDS011;15703;49.588;6.260;2023-07-20T08:29:40;5.43;;;2.88;;
28481;SDS011;15703;49.588;6.260;2023-07-20T08:32:02;4.35;;;2.75;;
28481;SDS011;15703;49.588;6.260;2023-07-20T08:34:26;2.60;;;2.30;;
28481;SDS011;15703;49.588;6.260;2023-07-20T08:36:52;5.57;;;3.00;;
28481;SDS011;15703;49.588;6.260;2023-07-20T08:39:15;4.82;;;2.95;;
28481;SDS011;15703;49.588;6.260;2023-07-20T08:41:37;4.50;;;3.13;;
28481;SDS011;15703;49.588;6.260;2023-07-20T08:44:00;5.28;;;2.80;;
28481;SDS011;15703;49.588;6.260;2023-07-20T08:46:23;5.53;;;3.20;;
28481;SDS011;15703;49.588;6.260;2023-07-20T08:48:47;5.22;;;3.22;;
28481;SDS011;15703;49.588;6.260;2023-07-20T08:51:10;7.22;;;3.33;;
28481;SDS011;15703;49.588;6.260;2023-07-20T08:53:34;3.90;;;2.72;;
28481;SDS011;15703;49.588;6.260;2023-07-20T08:55:56;3.40;;;2.65;;
28481;SDS011;15703;49.588;6.260;2023-07-20T08:58:20;7.13;;;3.80;;
28481;SDS011;15703;49.588;6.260;2023-07-20T09:00:42;6.40;;;3.30;;
28481;SDS011;15703;49.588;6.260;2023-07-20T09:03:07;4.45;;;2.97;;
28481;SDS011;15703;49.588;6.260;2023-07-20T09:05:30;7.07;;;2.85;;
28481;SDS011;15703;49.588;6.260;2023-07-20T09:07:54;5.25;;;3.15;;
28481;SDS011;15703;49.588;6.260;2023-07-20T09:10:16;4.78;;;2.47;;
28481;SDS011;15703;49.588;6.260;2023-07-20T09:12:39;3.53;;;2.80;;
28481;SDS011;15703;49.588;6.260;2023-07-20T09:15:03;7.85;;;3.05;;
28481;SDS011;15703;49.588;6.260;2023-07-20T09:17:26;5.63;;;2.90;;
28481;SDS011;15703;49.588;6.260;2023-07-20T09:19:51;5.28;;;2.95;;
28481;SDS011;15703;49.588;6.260;2023-07-20T09:22:14;5.50;;;3.00;;
28481;SDS011;15703;49.588;6.260;2023-07-20T09:24:36;5.78;;;2.60;;
28481;SDS011;15703;49.588;6.260;2023-07-20T09:26:59;5.15;;;3.00;;
28481;SDS011;15703;49.588;6.260;2023-07-20T09:29:26;3.60;;;2.75;;
28481;SDS011;15703;49.588;6.260;2023-07-20T09:32:00;3.60;;;2.47;;
28481;SDS011;15703;49.588;6.260;2023-07-20T09:34:23;4.82;;;2.38;;
28481;SDS011;15703;49.588;6.260;2023-07-20T09:36:48;3.03;;;2.05;;
28481;SDS011;15703;49.588;6.260;2023-07-20T09:39:14;3.42;;;2.17;;
28481;SDS011;15703;49.588;6.260;2023-07-20T09:41:50;3.08;;;2.40;;
28481;SDS011;15703;49.588;6.260;2023-07-20T09:44:33;3.63;;;2.60;;
28481;SDS011;15703;49.588;6.260;2023-07-20T09:47:03;5.55;;;2.35;;
28481;SDS011;15703;49.588;6.260;2023-07-20T09:49:26;4.68;;;2.13;;
28481;SDS011;15703;49.588;6.260;2023-07-20T09:51:50;4.07;;;2.25;;
28481;SDS011;15703;49.588;6.260;2023-07-20T09:54:14;2.92;;;1.90;;
28481;SDS011;15703;49.588;6.260;2023-07-20T09:56:38;5.07;;;2.13;;
28481;SDS011;15703;49.588;6.260;2023-07-20T09:59:00;2.10;;;1.60;;
28481;SDS011;15703;49.588;6.260;2023-07-20T10:01:23;2.13;;;1.42;;
28481;SDS011;15703;49.588;6.260;2023-07-20T10:03:51;2.83;;;1.73;;
28481;SDS011;15703;49.588;6.260;2023-07-20T10:06:15;2.65;;;1.55;;
28481;SDS011;15703;49.588;6.260;2023-07-20T10:08:40;3.13;;;1.80;;
28481;SDS011;15703;49.588;6.260;2023-07-20T10:11:06;2.78;;;2.13;;
28481;SDS011;15703;49.588;6.260;2023-07-20T10:13:30;3.10;;;2.03;;
28481;SDS011;15703;49.588;6.260;2023-07-20T10:21:07;2.28;;;1.58;;
28481;SDS011;15703;49.588;6.260;2023-07-20T10:23:34;2.05;;;1.80;;
28481;SDS011;15703;49.588;6.260;2023-07-20T10:25:57;2.33;;;1.40;;
28481;SDS011;15703;49.588;6.260;2023-07-20T10:28:21;1.67;;;1.55;;
28481;SDS011;15703;49.588;6.260;2023-07-20T10:30:48;3.40;;;1.73;;
28481;SDS011;15703;49.588;6.260;2023-07-20T10:33:11;2.13;;;1.40;;
28481;SDS011;15703;49.588;6.260;2023-07-20T10:35:52;2.22;;;1.52;;
28481;SDS011;15703;49.588;6.260;2023-07-20T10:38:15;5.13;;;1.60;;
28481;SDS011;15703;49.588;6.260;2023-07-20T10:40:38;3.10;;;1.30;;
28481;SDS011;15703;49.588;6.260;2023-07-20T10:43:01;5.57;;;1.45;;
28481;SDS011;15703;49.588;6.260;2023-07-20T10:45:39;4.35;;;1.40;;
28481;SDS011;15703;49.588;6.260;2023-07-20T10:48:02;1.80;;;1.00;;
28481;SDS011;15703;49.588;6.260;2023-07-20T10:50:26;3.50;;;1.30;;
28481;SDS011;15703;49.588;6.260;2023-07-20T10:55:32;2.95;;;0.93;;
28481;SDS011;15703;49.588;6.260;2023-07-20T10:58:06;1.38;;;1.10;;
28481;SDS011;15703;49.588;6.260;2023-07-20T11:00:29;1.88;;;1.10;;
28481;SDS011;15703;49.588;6.260;2023-07-20T11:02:52;3.22;;;1.00;;
28481;SDS011;15703;49.588;6.260;2023-07-20T11:05:31;2.17;;;1.17;;
28481;SDS011;15703;49.588;6.260;2023-07-20T11:08:03;1.88;;;0.95;;
28481;SDS011;15703;49.588;6.260;2023-07-20T11:10:26;0.88;;;0.68;;
28481;SDS011;15703;49.588;6.260;2023-07-20T11:13:15;1.75;;;0.82;;
28481;SDS011;15703;49.588;6.260;2023-07-20T11:15:53;0.80;;;0.68;;
28481;SDS011;15703;49.588;6.260;2023-07-20T11:18:27;1.42;;;0.65;;
28481;SDS011;15703;49.588;6.260;2023-07-20T11:20:53;0.85;;;0.40;;
28481;SDS011;15703;49.588;6.260;2023-07-20T11:23:15;0.50;;;0.30;;
28481;SDS011;15703;49.588;6.260;2023-07-20T11:25:38;0.63;;;0.50;;
28481;SDS011;15703;49.588;6.260;2023-07-20T11:28:01;0.68;;;0.32;;
28481;SDS011;15703;49.588;6.260;2023-07-20T11:30:24;0.35;;;0.30;;
28481;SDS011;15703;49.588;6.260;2023-07-20T11:32:50;0.82;;;0.50;;
28481;SDS011;15703;49.588;6.260;2023-07-20T11:35:12;1.20;;;0.68;;
28481;SDS011;15703;49.588;6.260;2023-07-20T11:37:35;1.15;;;0.55;;
28481;SDS011;15703;49.588;6.260;2023-07-20T11:39:57;1.67;;;0.40;;
28481;SDS011;15703;49.588;6.260;2023-07-20T11:42:20;0.50;;;0.35;;
28481;SDS011;15703;49.588;6.260;2023-07-20T11:44:45;0.77;;;0.60;;
28481;SDS011;15703;49.588;6.260;2023-07-20T11:47:13;0.85;;;0.60;;
28481;SDS011;15703;49.588;6.260;2023-07-20T11:49:38;1.00;;;0.68;;
28481;SDS011;15703;49.588;6.260;2023-07-20T11:52:01;1.80;;;0.85;;
28481;SDS011;15703;49.588;6.260;2023-07-20T11:54:23;1.45;;;0.57;;
28481;SDS011;15703;49.588;6.260;2023-07-20T11:56:46;0.93;;;0.50;;
28481;SDS011;15703;49.588;6.260;2023-07-20T11:59:18;0.50;;;0.50;;
28481;SDS011;15703;49.588;6.260;2023-07-20T12:01:40;1.15;;;0.63;;
28481;SDS011;15703;49.588;6.260;2023-07-20T12:04:04;3.15;;;0.63;;
28481;SDS011;15703;49.588;6.260;2023-07-20T12:06:30;1.98;;;0.80;;
28481;SDS011;15703;49.588;6.260;2023-07-20T12:08:56;2.25;;;0.73;;
28481;SDS011;15703;49.588;6.260;2023-07-20T12:11:31;4.15;;;1.08;;
28481;SDS011;15703;49.588;6.260;2023-07-20T12:13:54;1.17;;;0.90;;
28481;SDS011;15703;49.588;6.260;2023-07-20T12:16:37;1.55;;;0.80;;
28481;SDS011;15703;49.588;6.260;2023-07-20T12:19:01;1.95;;;0.52;;
28481;SDS011;15703;49.588;6.260;2023-07-20T12:21:23;2.42;;;1.02;;
28481;SDS011;15703;49.588;6.260;2023-07-20T12:23:46;2.47;;;0.82;;
28481;SDS011;15703;49.588;6.260;2023-07-20T12:26:09;1.27;;;0.70;;
28481;SDS011;15703;49.588;6.260;2023-07-20T12:28:31;2.90;;;0.75;;
28481;SDS011;15703;49.588;6.260;2023-07-20T12:30:54;1.83;;;0.60;;
28481;SDS011;15703;49.588;6.260;2023-07-20T12:33:19;2.10;;;0.90;;
28481;SDS011;15703;49.588;6.260;2023-07-20T12:35:41;1.25;;;0.63;;
28481;SDS011;15703;49.588;6.260;2023-07-20T12:38:04;1.88;;;0.50;;
28481;SDS011;15703;49.588;6.260;2023-07-20T12:40:27;3.03;;;0.65;;
28481;SDS011;15703;49.588;6.260;2023-07-20T12:42:50;2.67;;;0.82;;
28481;SDS011;15703;49.588;6.260;2023-07-20T12:45:13;1.50;;;0.70;;
28481;SDS011;15703;49.588;6.260;2023-07-20T12:47:35;1.13;;;0.55;;
28481;SDS011;15703;49.588;6.260;2023-07-20T12:49:57;1.10;;;0.40;;
28481;SDS011;15703;49.588;6.260;2023-07-20T12:52:19;1.65;;;0.60;;
28481;SDS011;15703;49.588;6.260;2023-07-20T12:54:42;0.40;;;0.40;;
28481;SDS011;15703;49.588;6.260;2023-07-20T12:57:04;0.80;;;0.47;;
28481;SDS011;15703;49.588;6.260;2023-07-20T12:59:30;2.25;;;0.60;;
28481;SDS011;15703;49.588;6.260;2023-07-20T13:01:52;1.27;;;0.70;;
28481;SDS011;15703;49.588;6.260;2023-07-20T13:04:14;2.22;;;0.70;;
28481;SDS011;15703;49.588;6.260;2023-07-20T13:06:37;3.05;;;0.70;;
28481;SDS011;15703;49.588;6.260;2023-07-20T13:08:59;2.10;;;0.70;;
28481;SDS011;15703;49.588;6.260;2023-07-20T13:11:22;1.05;;;0.70;;
28481;SDS011;15703;49.588;6.260;2023-07-20T13:13:44;1.27;;;0.63;;
28481;SDS011;15703;49.588;6.260;2023-07-20T13:16:06;2.90;;;0.82;;
28481;SDS011;15703;49.588;6.260;2023-07-20T13:18:29;0.60;;;0.60;;
28481;SDS011;15703;49.588;6.260;2023-07-20T13:20:51;1.23;;;0.60;;
28481;SDS011;15703;49.588;6.260;2023-07-20T13:23:14;0.60;;;0.40;;
28481;SDS011;15703;49.588;6.260;2023-07-20T13:25:36;1.00;;;0.57;;
28481;SDS011;15703;49.588;6.260;2023-07-20T13:27:59;4.25;;;0.60;;
28481;SDS011;15703;49.588;6.260;2023-07-20T13:30:21;1.17;;;0.60;;
28481;SDS011;15703;49.588;6.260;2023-07-20T13:32:44;0.70;;;0.50;;
28481;SDS011;15703;49.588;6.260;2023-07-20T13:35:14;0.80;;;0.60;;
28481;SDS011;15703;49.588;6.260;2023-07-20T13:37:36;1.20;;;0.43;;
28481;SDS011;15703;49.588;6.260;2023-07-20T13:39:59;1.90;;;0.70;;
28481;SDS011;15703;49.588;6.260;2023-07-20T13:42:21;1.30;;;0.63;;
28481;SDS011;15703;49.588;6.260;2023-07-20T13:44:43;1.48;;;0.73;;
28481;SDS011;15703;49.588;6.260;2023-07-20T13:47:05;0.55;;;0.50;;
28481;SDS011;15703;49.588;6.260;2023-07-20T13:49:31;1.60;;;0.80;;
28481;SDS011;15703;49.588;6.260;2023-07-20T13:52:06;2.55;;;0.68;;
28481;SDS011;15703;49.588;6.260;2023-07-20T13:54:32;1.27;;;0.65;;
28481;SDS011;15703;49.588;6.260;2023-07-20T13:56:54;2.28;;;0.93;;
28481;SDS011;15703;49.588;6.260;2023-07-20T13:59:17;1.65;;;0.63;;
28481;SDS011;15703;49.588;6.260;2023-07-20T14:01:39;2.58;;;0.57;;
28481;SDS011;15703;49.588;6.260;2023-07-20T14:04:02;1.13;;;0.65;;
28481;SDS011;15703;49.588;6.260;2023-07-20T14:06:25;1.90;;;0.60;;
28481;SDS011;15703;49.588;6.260;2023-07-20T14:08:51;2.53;;;0.73;;
28481;SDS011;15703;49.588;6.260;2023-07-20T14:11:14;1.70;;;0.70;;
28481;SDS011;15703;49.588;6.260;2023-07-20T14:13:40;0.95;;;0.50;;
28481;SDS011;15703;49.588;6.260;2023-07-20T14:16:08;0.98;;;0.50;;
28481;SDS011;15703;49.588;6.260;2023-07-20T14:18:31;1.08;;;0.75;;
28481;SDS011;15703;49.588;6.260;2023-07-20T14:20:53;1.45;;;0.70;;
28481;SDS011;15703;49.588;6.260;2023-07-20T14:23:16;2.85;;;0.70;;
28481;SDS011;15703;49.588;6.260;2023-07-20T14:25:38;3.17;;;0.70;;
28481;SDS011;15703;49.588;6.260;2023-07-20T14:28:01;0.95;;;0.63;;
28481;SDS011;15703;49.588;6.260;2023-07-20T14:30:23;1.48;;;0.70;;
28481;SDS011;15703;49.588;6.260;2023-07-20T14:32:46;1.42;;;0.65;;
28481;SDS011;15703;49.588;6.260;2023-07-20T14:35:08;2.70;;;0.85;;
28481;SDS011;15703;49.588;6.260;2023-07-20T14:37:31;1.75;;;0.70;;
28481;SDS011;15703;49.588;6.260;2023-07-20T14:39:54;1.23;;;0.80;;